sensor_id;sensor_type;location;lat;lon;timestamp;pressure;altitude;pressure_sealevel;temperature;humidity
14204;BME280;7185;51.854;6.622;2023-01-26T00:01:13;102280.59;;;-0.24;100.00
14204;BME280;7185;51.854;6.622;2023-01-26T00:03:46;102270.22;;;-0.25;100.00
14204;BME280;7185;51.854;6.622;2023-01-26T00:06:19;102272.47;;;-0.15;100.00
14204;BME280;7185;51.854;6.622;2023-01-26T00:08:53;102272.63;;;-0.12;100.00
14204;BME280;7185;51.854;6.622;2023-01-26T00:11:30;102262.94;;;-0.16;100.00
14204;BME280;7185;51.854;6.622;2023-01-26T00:14:02;102266.69;;;-0.11;100.00
14204;BME280;7185;51.854;6.622;2023-01-26T00:16:34;102271.03;;;-0.26;100.00
14204;BME280;7185;51.854;6.622;2023-01-26T00:19:06;102269.63;;;-0.20;100.00
14204;BME280;7185;51.854;6.622;2023-01-26T00:21:38;102256.19;;;-0.14;100.00
14204;BME280;7185;51.854;6.622;2023-01-26T00:24:10;102256.00;;;-0.17;100.00
14204;BME280;7185;51.854;6.622;2023-01-26T00:26:43;102255.38;;;-0.13;100.00
14204;BME280;7185;51.854;6.622;2023-01-26T00:29:28;102253.91;;;-0.24;100.00
14204;BME280;7185;51.854;6.622;2023-01-26T00:32:00;102246.38;;;-0.21;100.00
14204;BME280;7185;51.854;6.622;2023-01-26T00:34:32;102246.19;;;-0.41;100.00
14204;BME280;7185;51.854;6.622;2023-01-26T00:37:04;102232.75;;;-0.19;100.00
14204;BME280;7185;51.854;6.622;2023-01-26T00:39:36;102238.94;;;-0.15;100.00
14204;BME280;7185;51.854;6.622;2023-01-26T00:42:09;102237.34;;;-0.29;100.00
14204;BME280;7185;51.854;6.622;2023-01-26T00:44:43;102241.22;;;-0.21;100.00
14204;BME280;7185;51.854;6.622;2023-01-26T00:47:16;102234.84;;;-0.11;100.00
14204;BME280;7185;51.854;6.622;2023-01-26T00:49:49;102230.91;;;-0.05;100.00
14204;BME280;7185;51.854;6.622;2023-01-26T00:52:21;102224.44;;;-0.13;100.00
14204;BME280;7185;51.854;6.622;2023-01-26T00:54:53;102222.78;;;-0.29;100.00
14204;BME280;7185;51.854;6.622;2023-01-26T00:57:27;102217.50;;;-0.30;100.00
14204;BME280;7185;51.854;6.622;2023-01-26T00:59:59;102219.78;;;-0.20;100.00
14204;BME280;7185;51.854;6.622;2023-01-26T01:02:31;102206.47;;;-0.11;100.00
14204;BME280;7185;51.854;6.622;2023-01-26T01:05:07;102204.94;;;-0.08;100.00
14204;BME280;7185;51.854;6.622;2023-01-26T01:07:39;102194.00;;;-0.04;100.00
14204;BME280;7185;51.854;6.622;2023-01-26T01:10:11;102200.41;;;0.05;100.00
14204;BME280;7185;51.854;6.622;2023-01-26T01:12:44;102191.97;;;-0.09;100.00
14204;BME280;7185;51.854;6.622;2023-01-26T01:15:16;102194.00;;;-0.04;100.00
14204;BME280;7185;51.854;6.622;2023-01-26T01:17:48;102201.72;;;-0.04;100.00
14204;BME280;7185;51.854;6.622;2023-01-26T01:20:21;102200.34;;;-0.13;100.00
14204;BME280;7185;51.854;6.622;2023-01-26T01:22:53;102184.47;;;-0.05;100.00
14204;BME280;7185;51.854;6.622;2023-01-26T01:25:25;102186.88;;;-0.08;100.00
14204;BME280;7185;51.854;6.622;2023-01-26T01:27:58;102179.03;;;-0.11;100.00
14204;BME280;7185;51.854;6.622;2023-01-26T01:30:30;102187.25;;;-0.35;100.00
14204;BME280;7185;51.854;6.622;2023-01-26T01:33:01;102188.03;;;-0.19;100.00
14204;BME280;7185;51.854;6.622;2023-01-26T01:35:33;102194.31;;;-0.14;100.00
14204;BME280;7185;51.854;6.622;2023-01-26T01:38:05;102193.75;;;-0.08;100.00
14204;BME280;7185;51.854;6.622;2023-01-26T01:40:41;102180.56;;;0.04;100.00
14204;BME280;7185;51.854;6.622;2023-01-26T01:43:15;102182.78;;;-0.04;100.00
14204;BME280;7185;51.854;6.622;2023-01-26T01:45:48;102174.72;;;0.06;100.00
14204;BME280;7185;51.854;6.622;2023-01-26T01:48:23;102188.31;;;0.04;100.00
14204;BME280;7185;51.854;6.622;2023-01-26T01:51:01;102186.13;;;0.11;100.00
14204;BME280;7185;51.854;6.622;2023-01-26T01:53:38;102184.78;;;0.02;100.00
14204;BME280;7185;51.854;6.622;2023-01-26T01:56:14;102180.97;;;0.11;100.00
14204;BME280;7185;51.854;6.622;2023-01-26T01:58:52;102180.63;;;-0.13;100.00
14204;BME280;7185;51.854;6.622;2023-01-26T02:01:24;102185.22;;;-0.07;100.00
14204;BME280;7185;51.854;6.622;2023-01-26T02:03:58;102173.06;;;0.08;100.00
14204;BME280;7185;51.854;6.622;2023-01-26T02:06:35;102179.63;;;0.02;100.00
14204;BME280;7185;51.854;6.622;2023-01-26T02:09:09;102178.63;;;0.16;100.00
14204;BME280;7185;51.854;6.622;2023-01-26T02:12:02;102184.53;;;0.13;100.00
14204;BME280;7185;51.854;6.622;2023-01-26T02:14:37;102181.22;;;0.16;100.00
14204;BME280;7185;51.854;6.622;2023-01-26T02:17:09;102186.50;;;0.19;100.00
14204;BME280;7185;51.854;6.622;2023-01-26T02:19:47;102187.19;;;0.15;100.00
14204;BME280;7185;51.854;6.622;2023-01-26T02:22:29;102177.72;;;0.15;100.00
14204;BME280;7185;51.854;6.622;2023-01-26T02:25:08;102175.81;;;0.11;100.00
14204;BME280;7185;51.854;6.622;2023-01-26T02:27:44;102177.59;;;0.12;100.00
14204;BME280;7185;51.854;6.622;2023-01-26T02:30:16;102172.16;;;0.24;100.00
14204;BME280;7185;51.854;6.622;2023-01-26T02:32:48;102167.66;;;0.38;100.00
14204;BME280;7185;51.854;6.622;2023-01-26T02:35:19;102165.75;;;0.34;100.00
14204;BME280;7185;51.854;6.622;2023-01-26T02:37:51;102163.69;;;0.27;100.00
14204;BME280;7185;51.854;6.622;2023-01-26T02:40:29;102168.16;;;0.13;100.00
14204;BME280;7185;51.854;6.622;2023-01-26T02:43:13;102172.16;;;0.24;100.00
14204;BME280;7185;51.854;6.622;2023-01-26T02:45:43;102158.88;;;0.35;100.00
14204;BME280;7185;51.854;6.622;2023-01-26T02:48:15;102161.06;;;0.09;100.00
14204;BME280;7185;51.854;6.622;2023-01-26T02:51:08;102156.34;;;0.18;100.00
14204;BME280;7185;51.854;6.622;2023-01-26T02:53:39;102152.09;;;0.19;100.00
14204;BME280;7185;51.854;6.622;2023-01-26T02:56:10;102151.59;;;0.26;100.00
14204;BME280;7185;51.854;6.622;2023-01-26T02:58:43;102156.78;;;0.09;100.00
14204;BME280;7185;51.854;6.622;2023-01-26T03:01:19;102150.56;;;0.22;100.00
14204;BME280;7185;51.854;6.622;2023-01-26T03:04:05;102153.44;;;0.28;100.00
14204;BME280;7185;51.854;6.622;2023-01-26T03:06:36;102154.63;;;0.35;100.00
14204;BME280;7185;51.854;6.622;2023-01-26T03:09:08;102147.41;;;0.28;100.00
14204;BME280;7185;51.854;6.622;2023-01-26T03:11:40;102157.25;;;0.19;100.00
14204;BME280;7185;51.854;6.622;2023-01-26T03:14:14;102159.56;;;0.30;100.00
14204;BME280;7185;51.854;6.622;2023-01-26T03:16:46;102159.69;;;0.34;100.00
14204;BME280;7185;51.854;6.622;2023-01-26T03:19:17;102153.06;;;0.21;100.00
14204;BME280;7185;51.854;6.622;2023-01-26T03:22:08;102142.53;;;0.34;100.00
14204;BME280;7185;51.854;6.622;2023-01-26T03:24:57;102142.09;;;0.43;100.00
14204;BME280;7185;51.854;6.622;2023-01-26T03:27:48;102133.44;;;0.42;100.00
14204;BME280;7185;51.854;6.622;2023-01-26T03:30:21;102146.34;;;0.42;100.00
14204;BME280;7185;51.854;6.622;2023-01-26T03:32:52;102145.47;;;0.42;100.00
14204;BME280;7185;51.854;6.622;2023-01-26T03:35:24;102137.66;;;0.40;100.00
14204;BME280;7185;51.854;6.622;2023-01-26T03:37:56;102138.25;;;0.53;100.00
14204;BME280;7185;51.854;6.622;2023-01-26T03:40:27;102139.84;;;0.51;100.00
14204;BME280;7185;51.854;6.622;2023-01-26T03:43:16;102137.22;;;0.49;100.00
14204;BME280;7185;51.854;6.622;2023-01-26T03:46:07;102137.22;;;0.49;100.00
14204;BME280;7185;51.854;6.622;2023-01-26T03:48:57;102137.78;;;0.61;100.00
14204;BME280;7185;51.854;6.622;2023-01-26T03:51:45;102138.59;;;0.60;100.00
14204;BME280;7185;51.854;6.622;2023-01-26T03:54:34;102133.88;;;0.70;100.00
14204;BME280;7185;51.854;6.622;2023-01-26T03:57:23;102139.84;;;0.69;100.00
14204;BME280;7185;51.854;6.622;2023-01-26T03:59:55;102134.56;;;0.66;100.00
14204;BME280;7185;51.854;6.622;2023-01-26T04:02:28;102139.09;;;0.71;100.00
14204;BME280;7185;51.854;6.622;2023-01-26T04:05:17;102132.91;;;0.68;100.00
14204;BME280;7185;51.854;6.622;2023-01-26T04:08:06;102134.69;;;0.69;100.00
14204;BME280;7185;51.854;6.622;2023-01-26T04:10:56;102150.84;;;0.65;100.00
14204;BME280;7185;51.854;6.622;2023-01-26T04:13:27;102148.28;;;0.65;100.00
14204;BME280;7185;51.854;6.622;2023-01-26T04:16:17;102143.47;;;0.72;100.00
14204;BME280;7185;51.854;6.622;2023-01-26T04:19:07;102144.22;;;0.70;100.00
14204;BME280;7185;51.854;6.622;2023-01-26T04:21:58;102144.50;;;0.76;100.00
14204;BME280;7185;51.854;6.622;2023-01-26T04:24:29;102142.06;;;0.79;100.00
14204;BME280;7185;51.854;6.622;2023-01-26T04:27:01;102143.56;;;0.74;100.00
14204;BME280;7185;51.854;6.622;2023-01-26T04:29:33;102148.41;;;0.68;100.00
14204;BME280;7185;51.854;6.622;2023-01-26T04:32:04;102147.69;;;0.70;100.00
14204;BME280;7185;51.854;6.622;2023-01-26T04:34:37;102145.69;;;0.65;100.00
14204;BME280;7185;51.854;6.622;2023-01-26T04:37:09;102140.00;;;0.72;100.00
14204;BME280;7185;51.854;6.622;2023-01-26T04:39:40;102141.44;;;0.85;100.00
14204;BME280;7185;51.854;6.622;2023-01-26T04:42:12;102135.41;;;0.84;100.00
14204;BME280;7185;51.854;6.622;2023-01-26T04:44:43;102135.28;;;0.81;100.00
14204;BME280;7185;51.854;6.622;2023-01-26T04:47:15;102130.31;;;0.86;100.00
14204;BME280;7185;51.854;6.622;2023-01-26T04:49:48;102137.13;;;0.84;100.00
14204;BME280;7185;51.854;6.622;2023-01-26T04:52:19;102129.81;;;0.75;100.00
14204;BME280;7185;51.854;6.622;2023-01-26T04:54:51;102130.13;;;0.81;100.00
14204;BME280;7185;51.854;6.622;2023-01-26T04:57:23;102133.63;;;0.83;100.00
14204;BME280;7185;51.854;6.622;2023-01-26T04:59:54;102138.28;;;0.90;100.00
14204;BME280;7185;51.854;6.622;2023-01-26T05:02:26;102127.44;;;0.79;100.00
14204;BME280;7185;51.854;6.622;2023-01-26T05:05:03;102123.03;;;0.77;100.00
14204;BME280;7185;51.854;6.622;2023-01-26T05:07:34;102124.97;;;0.81;100.00
14204;BME280;7185;51.854;6.622;2023-01-26T05:10:07;102123.84;;;0.76;100.00
14204;BME280;7185;51.854;6.622;2023-01-26T05:12:39;102122.44;;;0.83;100.00
14204;BME280;7185;51.854;6.622;2023-01-26T05:15:14;102126.78;;;0.84;100.00
14204;BME280;7185;51.854;6.622;2023-01-26T05:17:46;102120.34;;;0.93;100.00
14204;BME280;7185;51.854;6.622;2023-01-26T05:20:22;102116.66;;;0.88;100.00
14204;BME280;7185;51.854;6.622;2023-01-26T05:22:54;102111.16;;;1.00;100.00
14204;BME280;7185;51.854;6.622;2023-01-26T05:25:27;102110.28;;;1.00;100.00
14204;BME280;7185;51.854;6.622;2023-01-26T05:28:00;102115.75;;;1.06;100.00
14204;BME280;7185;51.854;6.622;2023-01-26T05:30:35;102118.69;;;0.95;100.00
14204;BME280;7185;51.854;6.622;2023-01-26T05:33:09;102111.78;;;0.94;100.00
14204;BME280;7185;51.854;6.622;2023-01-26T05:35:42;102116.22;;;0.97;100.00
14204;BME280;7185;51.854;6.622;2023-01-26T05:38:14;102121.28;;;0.95;100.00
14204;BME280;7185;51.854;6.622;2023-01-26T05:40:47;102116.44;;;1.02;100.00
14204;BME280;7185;51.854;6.622;2023-01-26T05:43:21;102118.25;;;1.04;100.00
14204;BME280;7185;51.854;6.622;2023-01-26T05:45:54;102119.59;;;0.96;100.00
14204;BME280;7185;51.854;6.622;2023-01-26T05:48:27;102116.28;;;0.99;100.00
14204;BME280;7185;51.854;6.622;2023-01-26T05:51:02;102122.41;;;1.01;100.00
14204;BME280;7185;51.854;6.622;2023-01-26T05:53:34;102118.31;;;1.06;100.00
14204;BME280;7185;51.854;6.622;2023-01-26T05:56:06;102116.50;;;1.03;100.00
14204;BME280;7185;51.854;6.622;2023-01-26T05:58:38;102118.09;;;1.01;100.00
14204;BME280;7185;51.854;6.622;2023-01-26T06:01:12;102119.00;;;1.02;100.00
14204;BME280;7185;51.854;6.622;2023-01-26T06:03:44;102116.53;;;1.05;100.00
14204;BME280;7185;51.854;6.622;2023-01-26T06:06:17;102124.88;;;0.99;100.00
14204;BME280;7185;51.854;6.622;2023-01-26T06:08:48;102116.69;;;1.08;100.00
14204;BME280;7185;51.854;6.622;2023-01-26T06:11:20;102122.69;;;1.07;100.00
14204;BME280;7185;51.854;6.622;2023-01-26T06:13:52;102124.19;;;1.02;100.00
14204;BME280;7185;51.854;6.622;2023-01-26T06:16:24;102120.91;;;1.06;100.00
14204;BME280;7185;51.854;6.622;2023-01-26T06:18:58;102124.84;;;1.17;100.00
14204;BME280;7185;51.854;6.622;2023-01-26T06:21:33;102127.03;;;1.08;100.00
14204;BME280;7185;51.854;6.622;2023-01-26T06:24:06;102122.53;;;1.04;100.00
14204;BME280;7185;51.854;6.622;2023-01-26T06:26:37;102122.25;;;1.17;100.00
14204;BME280;7185;51.854;6.622;2023-01-26T06:29:09;102119.50;;;1.13;100.00
14204;BME280;7185;51.854;6.622;2023-01-26T06:31:41;102119.81;;;1.20;100.00
14204;BME280;7185;51.854;6.622;2023-01-26T06:34:14;102119.81;;;1.20;100.00
14204;BME280;7185;51.854;6.622;2023-01-26T06:36:48;102127.97;;;1.10;100.00
14204;BME280;7185;51.854;6.622;2023-01-26T06:39:20;102125.69;;;1.16;100.00
14204;BME280;7185;51.854;6.622;2023-01-26T06:41:52;102129.19;;;1.18;100.00
14204;BME280;7185;51.854;6.622;2023-01-26T06:44:27;102127.16;;;1.11;100.00
14204;BME280;7185;51.854;6.622;2023-01-26T06:46:58;102124.31;;;1.24;100.00
14204;BME280;7185;51.854;6.622;2023-01-26T06:49:30;102130.16;;;1.20;100.00
14204;BME280;7185;51.854;6.622;2023-01-26T06:52:04;102131.16;;;1.04;100.00
14204;BME280;7185;51.854;6.622;2023-01-26T06:54:49;102124.94;;;1.19;100.00
14204;BME280;7185;51.854;6.622;2023-01-26T06:57:21;102132.06;;;1.24;100.00
14204;BME280;7185;51.854;6.622;2023-01-26T06:59:53;102131.94;;;1.21;100.00
14204;BME280;7185;51.854;6.622;2023-01-26T07:02:27;102138.03;;;1.23;100.00
14204;BME280;7185;51.854;6.622;2023-01-26T07:04:58;102137.09;;;1.21;100.00
14204;BME280;7185;51.854;6.622;2023-01-26T07:07:32;102143.56;;;1.31;100.00
14204;BME280;7185;51.854;6.622;2023-01-26T07:10:04;102140.16;;;1.32;100.00
14204;BME280;7185;51.854;6.622;2023-01-26T07:12:37;102141.03;;;1.33;100.00
14204;BME280;7185;51.854;6.622;2023-01-26T07:15:11;102143.78;;;1.36;100.00
14204;BME280;7185;51.854;6.622;2023-01-26T07:17:44;102137.50;;;1.31;100.00
14204;BME280;7185;51.854;6.622;2023-01-26T07:20:16;102139.41;;;1.35;100.00
14204;BME280;7185;51.854;6.622;2023-01-26T07:22:51;102137.63;;;1.34;100.00
14204;BME280;7185;51.854;6.622;2023-01-26T07:25:23;102139.94;;;1.27;100.00
14204;BME280;7185;51.854;6.622;2023-01-26T07:27:58;102139.19;;;1.30;100.00
14204;BME280;7185;51.854;6.622;2023-01-26T07:30:30;102141.03;;;1.33;100.00
14204;BME280;7185;51.854;6.622;2023-01-26T07:33:01;102141.47;;;1.22;100.00
14204;BME280;7185;51.854;6.622;2023-01-26T07:35:36;102148.56;;;1.28;100.00
14204;BME280;7185;51.854;6.622;2023-01-26T07:38:10;102148.38;;;1.23;100.00
14204;BME280;7185;51.854;6.622;2023-01-26T07:40:44;102151.25;;;1.30;100.00
14204;BME280;7185;51.854;6.622;2023-01-26T07:43:16;102153.97;;;1.33;100.00
14204;BME280;7185;51.854;6.622;2023-01-26T07:45:49;102160.34;;;1.41;100.00
14204;BME280;7185;51.854;6.622;2023-01-26T07:48:23;102149.88;;;1.38;100.00
14204;BME280;7185;51.854;6.622;2023-01-26T07:50:57;102162.94;;;1.41;100.00
14204;BME280;7185;51.854;6.622;2023-01-26T07:53:31;102164.66;;;1.40;100.00
14204;BME280;7185;51.854;6.622;2023-01-26T07:56:10;102167.34;;;1.43;100.00
14204;BME280;7185;51.854;6.622;2023-01-26T07:58:42;102169.06;;;1.43;100.00
14204;BME280;7185;51.854;6.622;2023-01-26T08:01:14;102171.28;;;1.35;100.00
14204;BME280;7185;51.854;6.622;2023-01-26T08:03:49;102162.13;;;1.42;100.00
14204;BME280;7185;51.854;6.622;2023-01-26T08:06:21;102166.59;;;1.46;100.00
14204;BME280;7185;51.854;6.622;2023-01-26T08:08:57;102161.97;;;1.39;100.00
14204;BME280;7185;51.854;6.622;2023-01-26T08:11:29;102164.16;;;1.49;100.00
14204;BME280;7185;51.854;6.622;2023-01-26T08:14:01;102161.16;;;1.59;100.00
14204;BME280;7185;51.854;6.622;2023-01-26T08:16:33;102159.41;;;1.58;100.00
14204;BME280;7185;51.854;6.622;2023-01-26T08:19:07;102159.53;;;1.62;100.00
14204;BME280;7185;51.854;6.622;2023-01-26T08:21:39;102165.97;;;1.71;100.00
14204;BME280;7185;51.854;6.622;2023-01-26T08:24:13;102170.22;;;1.50;100.00
14204;BME280;7185;51.854;6.622;2023-01-26T08:26:46;102171.38;;;1.56;100.00
14204;BME280;7185;51.854;6.622;2023-01-26T08:29:18;102173.16;;;1.57;100.00
14204;BME280;7185;51.854;6.622;2023-01-26T08:31:50;102175.47;;;1.51;100.00
14204;BME280;7185;51.854;6.622;2023-01-26T08:34:22;102175.03;;;1.62;100.00
14204;BME280;7185;51.854;6.622;2023-01-26T08:36:55;102170.84;;;1.64;100.00
14204;BME280;7185;51.854;6.622;2023-01-26T08:39:29;102164.44;;;1.55;100.00
14204;BME280;7185;51.854;6.622;2023-01-26T08:42:00;102165.94;;;1.70;100.00
14204;BME280;7185;51.854;6.622;2023-01-26T08:44:32;102165.66;;;1.64;100.00
14204;BME280;7185;51.854;6.622;2023-01-26T08:47:04;102166.16;;;1.55;100.00
14204;BME280;7185;51.854;6.622;2023-01-26T08:49:36;102171.59;;;1.61;100.00
14204;BME280;7185;51.854;6.622;2023-01-26T08:52:07;102173.81;;;1.73;100.00
14204;BME280;7185;51.854;6.622;2023-01-26T08:54:41;102172.31;;;1.78;100.00
14204;BME280;7185;51.854;6.622;2023-01-26T08:57:12;102174.22;;;1.82;100.00
14204;BME280;7185;51.854;6.622;2023-01-26T08:59:44;102169.72;;;1.78;100.00
14204;BME280;7185;51.854;6.622;2023-01-26T09:04:48;102172.44;;;1.81;100.00
14204;BME280;7185;51.854;6.622;2023-01-26T09:07:20;102181.00;;;1.80;100.00
14204;BME280;7185;51.854;6.622;2023-01-26T09:09:53;102192.59;;;1.69;100.00
14204;BME280;7185;51.854;6.622;2023-01-26T09:12:24;102184.28;;;1.76;100.00
14204;BME280;7185;51.854;6.622;2023-01-26T09:14:56;102182.88;;;1.83;100.00
14204;BME280;7185;51.854;6.622;2023-01-26T09:17:28;102181.75;;;1.78;100.00
14204;BME280;7185;51.854;6.622;2023-01-26T09:19:59;102184.81;;;1.88;100.00
14204;BME280;7185;51.854;6.622;2023-01-26T09:22:31;102174.88;;;1.98;100.00
14204;BME280;7185;51.854;6.622;2023-01-26T09:25:05;102177.31;;;1.95;100.00
14204;BME280;7185;51.854;6.622;2023-01-26T09:27:37;102183.69;;;2.03;100.00
14204;BME280;7185;51.854;6.622;2023-01-26T09:30:09;102190.53;;;2.01;100.00
14204;BME280;7185;51.854;6.622;2023-01-26T09:32:41;102179.78;;;2.13;100.00
14204;BME280;7185;51.854;6.622;2023-01-26T09:35:12;102185.47;;;2.04;100.00
14204;BME280;7185;51.854;6.622;2023-01-26T09:37:44;102183.75;;;2.04;100.00
14204;BME280;7185;51.854;6.622;2023-01-26T09:40:19;102185.06;;;1.95;100.00
14204;BME280;7185;51.854;6.622;2023-01-26T09:43:03;102182.19;;;2.08;100.00
14204;BME280;7185;51.854;6.622;2023-01-26T09:45:45;102180.56;;;2.10;100.00
14204;BME280;7185;51.854;6.622;2023-01-26T09:48:26;102183.19;;;2.12;100.00
14204;BME280;7185;51.854;6.622;2023-01-26T09:51:05;102177.47;;;1.98;100.00
14204;BME280;7185;51.854;6.622;2023-01-26T09:53:43;102183.53;;;2.19;100.00
14204;BME280;7185;51.854;6.622;2023-01-26T09:56:19;102183.03;;;2.07;100.00
14204;BME280;7185;51.854;6.622;2023-01-26T09:58:55;102180.81;;;2.16;100.00
14204;BME280;7185;51.854;6.622;2023-01-26T10:01:34;102177.53;;;2.20;100.00
14204;BME280;7185;51.854;6.622;2023-01-26T10:04:18;102169.06;;;2.25;100.00
14204;BME280;7185;51.854;6.622;2023-01-26T10:06:53;102171.72;;;2.26;100.00
14204;BME280;7185;51.854;6.622;2023-01-26T10:09:30;102173.75;;;2.33;100.00
14204;BME280;7185;51.854;6.622;2023-01-26T10:12:06;102166.06;;;2.35;100.00
14204;BME280;7185;51.854;6.622;2023-01-26T10:14:42;102176.41;;;2.35;100.00
14204;BME280;7185;51.854;6.622;2023-01-26T10:17:19;102163.97;;;2.47;100.00
14204;BME280;7185;51.854;6.622;2023-01-26T10:19:56;102162.91;;;2.42;100.00
14204;BME280;7185;51.854;6.622;2023-01-26T10:22:35;102166.06;;;2.58;100.00
14204;BME280;7185;51.854;6.622;2023-01-26T10:25:14;102157.19;;;2.51;100.00
14204;BME280;7185;51.854;6.622;2023-01-26T10:27:47;102163.50;;;2.58;100.00
14204;BME280;7185;51.854;6.622;2023-01-26T10:30:19;102157.25;;;2.52;100.00
14204;BME280;7185;51.854;6.622;2023-01-26T10:32:51;102163.38;;;2.54;100.00
14204;BME280;7185;51.854;6.622;2023-01-26T10:35:24;102163.38;;;2.54;100.00
14204;BME280;7185;51.854;6.622;2023-01-26T10:37:55;102169.56;;;2.58;100.00
14204;BME280;7185;51.854;6.622;2023-01-26T10:40:27;102162.09;;;2.66;100.00
14204;BME280;7185;51.854;6.622;2023-01-26T10:43:00;102166.50;;;2.68;100.00
14204;BME280;7185;51.854;6.622;2023-01-26T10:45:32;102161.47;;;2.71;100.00
14204;BME280;7185;51.854;6.622;2023-01-26T10:48:15;102170.38;;;2.78;100.00
14204;BME280;7185;51.854;6.622;2023-01-26T10:50:47;102162.59;;;2.78;100.00
14204;BME280;7185;51.854;6.622;2023-01-26T10:53:22;102160.06;;;2.80;100.00
14204;BME280;7185;51.854;6.622;2023-01-26T10:55:58;102164.34;;;2.79;100.00
14204;BME280;7185;51.854;6.622;2023-01-26T11:01:22;102160.47;;;2.91;100.00
14204;BME280;7185;51.854;6.622;2023-01-26T11:04:05;102154.97;;;2.83;100.00
14204;BME280;7185;51.854;6.622;2023-01-26T11:06:37;102155.47;;;2.95;100.00
14204;BME280;7185;51.854;6.622;2023-01-26T11:09:15;102149.38;;;2.95;100.00
14204;BME280;7185;51.854;6.622;2023-01-26T11:11:57;102155.03;;;3.07;100.00
14204;BME280;7185;51.854;6.622;2023-01-26T11:14:31;102148.34;;;3.12;100.00
14204;BME280;7185;51.854;6.622;2023-01-26T11:17:17;102157.38;;;3.24;100.00
14204;BME280;7185;51.854;6.622;2023-01-26T11:20:03;102151.41;;;3.26;100.00
14204;BME280;7185;51.854;6.622;2023-01-26T11:22:44;102162.56;;;3.24;100.00
14204;BME280;7185;51.854;6.622;2023-01-26T11:25:24;102158.53;;;3.32;100.00
14204;BME280;7185;51.854;6.622;2023-01-26T11:28:10;102161.56;;;3.20;100.00
14204;BME280;7185;51.854;6.622;2023-01-26T11:30:56;102155.59;;;3.23;100.00
14204;BME280;7185;51.854;6.622;2023-01-26T11:33:37;102159.16;;;3.25;100.00
14204;BME280;7185;51.854;6.622;2023-01-26T11:36:21;102153.84;;;3.22;100.00
14204;BME280;7185;51.854;6.622;2023-01-26T11:39:03;102161.13;;;3.32;100.00
14204;BME280;7185;51.854;6.622;2023-01-26T11:41:49;102153.38;;;3.32;100.00
14204;BME280;7185;51.854;6.622;2023-01-26T11:44:39;102144.22;;;3.42;100.00
14204;BME280;7185;51.854;6.622;2023-01-26T11:47:35;102132.22;;;3.45;100.00
14204;BME280;7185;51.854;6.622;2023-01-26T11:50:29;102140.97;;;3.47;100.00
14204;BME280;7185;51.854;6.622;2023-01-26T11:53:32;102131.66;;;3.54;100.00
14204;BME280;7185;51.854;6.622;2023-01-26T11:56:18;102142.13;;;3.56;100.00
14204;BME280;7185;51.854;6.622;2023-01-26T11:58:57;102129.66;;;3.71;100.00
14204;BME280;7185;51.854;6.622;2023-01-26T12:01:36;102134.75;;;3.68;100.00
14204;BME280;7185;51.854;6.622;2023-01-26T12:04:14;102134.44;;;3.85;100.00
14204;BME280;7185;51.854;6.622;2023-01-26T12:06:51;102125.09;;;3.64;100.00
14204;BME280;7185;51.854;6.622;2023-01-26T12:09:29;102124.91;;;3.83;100.00
14204;BME280;7185;51.854;6.622;2023-01-26T12:12:08;102126.34;;;4.01;100.00
14204;BME280;7185;51.854;6.622;2023-01-26T12:14:43;102113.56;;;4.07;100.00
14204;BME280;7185;51.854;6.622;2023-01-26T12:17:29;102115.06;;;4.26;100.00
14204;BME280;7185;51.854;6.622;2023-01-26T12:20:16;102118.69;;;4.31;100.00
14204;BME280;7185;51.854;6.622;2023-01-26T12:22:52;102113.63;;;4.36;100.00
14204;BME280;7185;51.854;6.622;2023-01-26T12:25:29;102111.16;;;4.39;100.00
14204;BME280;7185;51.854;6.622;2023-01-26T12:28:12;102111.41;;;4.49;100.00
14204;BME280;7185;51.854;6.622;2023-01-26T12:30:53;102106.16;;;4.45;100.00
14204;BME280;7185;51.854;6.622;2023-01-26T12:33:26;102109.75;;;4.51;100.00
14204;BME280;7185;51.854;6.622;2023-01-26T12:36:15;102108.72;;;4.44;100.00
14204;BME280;7185;51.854;6.622;2023-01-26T12:39:02;102095.94;;;4.52;100.00
14204;BME280;7185;51.854;6.622;2023-01-26T12:41:50;102085.56;;;4.52;100.00
14204;BME280;7185;51.854;6.622;2023-01-26T12:44:35;102087.94;;;4.44;100.00
14204;BME280;7185;51.854;6.622;2023-01-26T12:47:20;102085.63;;;4.55;100.00
14204;BME280;7185;51.854;6.622;2023-01-26T12:49:57;102082.38;;;4.62;100.00
14204;BME280;7185;51.854;6.622;2023-01-26T12:52:37;102078.78;;;4.57;100.00
14204;BME280;7185;51.854;6.622;2023-01-26T12:55:18;102075.03;;;4.76;100.00
14204;BME280;7185;51.854;6.622;2023-01-26T12:57:53;102072.72;;;4.87;100.00
14204;BME280;7185;51.854;6.622;2023-01-26T13:00:27;102074.75;;;4.97;100.00
14204;BME280;7185;51.854;6.622;2023-01-26T13:03:04;102070.22;;;5.20;100.00
14204;BME280;7185;51.854;6.622;2023-01-26T13:05:53;102062.47;;;5.23;100.00
14204;BME280;7185;51.854;6.622;2023-01-26T13:08:40;102070.91;;;5.47;100.00
14204;BME280;7185;51.854;6.622;2023-01-26T13:11:42;102069.53;;;5.61;100.00
14204;BME280;7185;51.854;6.622;2023-01-26T13:14:29;102060.31;;;5.72;100.00
14204;BME280;7185;51.854;6.622;2023-01-26T13:26:17;102064.09;;;6.60;100.00
14204;BME280;7185;51.854;6.622;2023-01-26T13:28:50;102058.72;;;6.52;100.00
14204;BME280;7185;51.854;6.622;2023-01-26T13:31:31;102057.56;;;6.40;100.00
14204;BME280;7185;51.854;6.622;2023-01-26T13:34:06;102064.53;;;6.41;100.00
14204;BME280;7185;51.854;6.622;2023-01-26T13:36:41;102058.50;;;6.42;100.00
14204;BME280;7185;51.854;6.622;2023-01-26T13:39:23;102056.22;;;6.57;100.00
14204;BME280;7185;51.854;6.622;2023-01-26T13:41:58;102053.53;;;6.52;100.00
14204;BME280;7185;51.854;6.622;2023-01-26T13:44:35;102054.25;;;6.47;100.00
14204;BME280;7185;51.854;6.622;2023-01-26T13:47:11;102063.94;;;6.52;100.00
14204;BME280;7185;51.854;6.622;2023-01-26T13:49:45;102061.34;;;6.52;100.00
14204;BME280;7185;51.854;6.622;2023-01-26T13:52:20;102055.34;;;6.57;100.00
14204;BME280;7185;51.854;6.622;2023-01-26T13:54:54;102060.41;;;6.50;100.00
14204;BME280;7185;51.854;6.622;2023-01-26T13:57:28;102062.28;;;6.56;100.00
14204;BME280;7185;51.854;6.622;2023-01-26T14:00:02;102057.34;;;6.70;100.00